Time;durP1;ratioP1;P1;durP2;ratioP2;P2;SDS_P1;SDS_P2;PMS_P1;PMS_P2;Temp;Humidity;BMP_temperature;BMP_pressure;BME280_temperature;BME280_humidity;BME280_pressure;Samples;Min_cycle;Max_cycle;Signal;HPM_P1;HPM_P2
2022/12/31 00:00:56;;;;;;;;;;;18.70;64.80;;;;;;4981205;28;20743;-90
2022/12/31 00:03:21;;;;;;;;;;;18.70;64.90;;;;;;4997950;28;19918;-89
2022/12/31 00:05:47;;;;;;;;;;;18.60;65.00;;;;;;4994703;28;19918;-90
2022/12/31 00:08:15;;;;;;;;;;;18.70;65.10;;;;;;4986467;28;19925;-91
2022/12/31 00:10:41;;;;;;;;;;;18.60;65.10;;;;;;4983910;28;19924;-92
2022/12/31 00:13:07;;;;;;;;;;;18.60;65.30;;;;;;4994097;28;19917;-90
2022/12/31 00:15:33;;;;;;;;;;;18.50;65.30;;;;;;4987406;28;19929;-92
2022/12/31 00:17:59;;;;;;;;;;;18.50;65.40;;;;;;4987866;28;19922;-91
2022/12/31 00:20:24;;;;;;;;;;;18.50;65.50;;;;;;4985620;28;19925;-90
2022/12/31 00:22:49;;;;;;;;;;;18.30;65.60;;;;;;4992797;28;19928;-89
2022/12/31 00:25:15;;;;;;;;;;;18.40;65.60;;;;;;5000520;28;19921;-91
2022/12/31 00:27:40;;;;;;;;;;;18.30;65.80;;;;;;4987211;28;19922;-90
2022/12/31 00:30:06;;;;;;;;;;;18.30;65.90;;;;;;4995122;28;19921;-90
2022/12/31 00:32:32;;;;;;;;;;;18.30;66.10;;;;;;4987109;28;20266;-93
2022/12/31 00:34:57;;;;;;;;;;;18.30;66.10;;;;;;4986689;28;20385;-90
2022/12/31 00:37:23;;;;;;;;;;;18.30;66.20;;;;;;4986357;28;19929;-89
2022/12/31 00:39:48;;;;;;;;;;;18.20;66.40;;;;;;4986406;28;20064;-91
2022/12/31 00:42:14;;;;;;;;;;;18.20;66.60;;;;;;4986450;28;20019;-90
2022/12/31 00:44:39;;;;;;;;;;;18.20;66.60;;;;;;4988600;28;20420;-89
2022/12/31 00:47:05;;;;;;;;;;;18.20;66.60;;;;;;4986460;28;19928;-91
2022/12/31 00:49:30;;;;;;;;;;;18.30;66.70;;;;;;4985829;28;19918;-91
2022/12/31 00:51:55;;;;;;;;;;;18.20;66.60;;;;;;4984931;28;19922;-91
2022/12/31 00:54:21;;;;;;;;;;;18.20;66.70;;;;;;4987958;28;19925;-91
2022/12/31 00:56:46;;;;;;;;;;;18.20;66.90;;;;;;4985986;28;20023;-88
2022/12/31 00:59:12;;;;;;;;;;;18.20;66.90;;;;;;4984461;28;19922;-90
2022/12/31 01:01:38;;;;;;;;;;;18.20;66.70;;;;;;4985755;28;20552;-92
2022/12/31 01:04:05;;;;;;;;;;;18.20;66.80;;;;;;4984862;28;20376;-93
2022/12/31 01:06:31;;;;;;;;;;;18.20;66.80;;;;;;4985944;28;19922;-89
2022/12/31 01:08:56;;;;;;;;;;;18.20;66.80;;;;;;4989808;28;19924;-89
2022/12/31 01:11:22;;;;;;;;;;;18.10;67.00;;;;;;4983029;28;19921;-90
2022/12/31 01:13:54;;;;;;;;;;;18.20;66.90;;;;;;4987571;28;19925;-89
2022/12/31 01:16:21;;;;;;;;;;;18.20;66.90;;;;;;5001117;28;19937;-91
2022/12/31 01:18:47;;;;;;;;;;;18.20;66.90;;;;;;4986475;28;20284;-91
2022/12/31 01:21:12;;;;;;;;;;;18.20;66.80;;;;;;4980515;28;19928;-91
2022/12/31 01:23:38;;;;;;;;;;;18.20;66.80;;;;;;4986917;28;19918;-91
2022/12/31 01:26:05;;;;;;;;;;;18.20;66.90;;;;;;4985768;28;20605;-91
2022/12/31 01:28:31;;;;;;;;;;;18.20;67.00;;;;;;4984746;28;19965;-91
2022/12/31 01:30:56;;;;;;;;;;;18.20;67.00;;;;;;4986266;28;19921;-93
2022/12/31 01:33:22;;;;;;;;;;;18.20;67.00;;;;;;4988148;28;19918;-88
2022/12/31 01:35:48;;;;;;;;;;;18.20;67.00;;;;;;4985744;28;20573;-93
2022/12/31 01:38:13;;;;;;;;;;;18.20;66.90;;;;;;4980483;28;19921;-89
2022/12/31 01:40:39;;;;;;;;;;;18.20;67.00;;;;;;4985744;28;19914;-88
2022/12/31 01:43:12;;;;;;;;;;;18.10;66.90;;;;;;4988016;28;19918;-88
2022/12/31 01:45:40;;;;;;;;;;;18.20;66.90;;;;;;4987681;28;19949;-91
2022/12/31 01:48:07;;;;;;;;;;;18.20;66.90;;;;;;4985691;28;19925;-90
2022/12/31 01:50:34;;;;;;;;;;;18.20;67.00;;;;;;4984544;28;20288;-92
2022/12/31 01:53:01;;;;;;;;;;;18.20;67.00;;;;;;4987765;28;20024;-92
2022/12/31 01:55:29;;;;;;;;;;;18.20;67.10;;;;;;4986904;28;20008;-90
2022/12/31 01:57:56;;;;;;;;;;;18.20;67.10;;;;;;4977424;28;19922;-91
2022/12/31 02:00:22;;;;;;;;;;;18.20;67.00;;;;;;4986175;28;19925;-89
2022/12/31 02:02:47;;;;;;;;;;;18.20;67.10;;;;;;4984765;28;19930;-89
2022/12/31 02:05:27;;;;;;;;;;;18.10;67.20;;;;;;4984789;28;19922;-91
2022/12/31 02:07:53;;;;;;;;;;;18.10;67.20;;;;;;4988468;28;19922;-92
2022/12/31 02:10:18;;;;;;;;;;;18.10;67.10;;;;;;4989808;28;19937;-92
2022/12/31 02:12:44;;;;;;;;;;;18.10;67.10;;;;;;4990360;28;19971;-92
2022/12/31 02:15:10;;;;;;;;;;;18.10;67.10;;;;;;4973950;28;19914;-93
2022/12/31 02:17:35;;;;;;;;;;;18.00;67.20;;;;;;4979852;28;20288;-88
2022/12/31 02:20:19;;;;;;;;;;;18.00;67.30;;;;;;4994677;28;19956;-88
2022/12/31 02:22:57;;;;;;;;;;;18.10;67.10;;;;;;5010919;28;19918;-92
2022/12/31 02:25:41;;;;;;;;;;;18.00;67.30;;;;;;4994798;28;19964;-88
2022/12/31 02:28:12;;;;;;;;;;;18.00;67.20;;;;;;4995993;28;19918;-91
2022/12/31 02:30:39;;;;;;;;;;;18.10;67.20;;;;;;4992474;28;19921;-88
2022/12/31 02:33:07;;;;;;;;;;;18.10;67.20;;;;;;4994600;28;20368;-92
2022/12/31 02:35:40;;;;;;;;;;;18.20;67.20;;;;;;4993433;28;19925;-93
2022/12/31 02:38:21;;;;;;;;;;;18.10;67.10;;;;;;4994360;28;19910;-92
2022/12/31 02:40:47;;;;;;;;;;;18.10;67.00;;;;;;4990704;28;19949;-89
2022/12/31 02:43:13;;;;;;;;;;;18.20;67.20;;;;;;4995592;28;19953;-93
2022/12/31 02:45:40;;;;;;;;;;;18.20;67.20;;;;;;4989674;28;20321;-89
2022/12/31 02:48:12;;;;;;;;;;;18.10;67.20;;;;;;4994275;28;19969;-92
2022/12/31 02:50:56;;;;;;;;;;;18.20;67.20;;;;;;4993166;28;19914;-90
2022/12/31 02:53:37;;;;;;;;;;;18.20;67.20;;;;;;4993237;28;20591;-89
2022/12/31 02:56:08;;;;;;;;;;;18.20;67.20;;;;;;4992955;28;19968;-92
2022/12/31 03:06:55;;;;;;;;;;;18.20;67.70;;;;;;4993971;28;19960;-89
2022/12/31 03:09:20;;;;;;;;;;;18.20;67.70;;;;;;4993073;28;19942;-91
2022/12/31 03:14:30;;;;;;;;;;;18.20;67.80;;;;;;4993745;28;19956;-92
2022/12/31 03:16:56;;;;;;;;;;;18.20;67.80;;;;;;4992044;28;19957;-89
2022/12/31 03:27:34;;;;;;;;;;;18.30;68.00;;;;;;4994283;28;19924;-92
2022/12/31 03:29:59;;;;;;;;;;;18.20;68.20;;;;;;5010564;28;19913;-91
2022/12/31 03:32:25;;;;;;;;;;;18.30;68.10;;;;;;4996037;28;19968;-92
2022/12/31 03:34:50;;;;;;;;;;;18.40;67.90;;;;;;5008541;28;19917;-93
2022/12/31 03:37:16;;;;;;;;;;;18.40;67.80;;;;;;4992736;28;19926;-92
2022/12/31 03:39:41;;;;;;;;;;;18.40;67.90;;;;;;4992097;28;19913;-90
2022/12/31 03:42:07;;;;;;;;;;;18.50;67.90;;;;;;4993539;28;20272;-90
2022/12/31 03:44:32;;;;;;;;;;;18.60;67.80;;;;;;4991574;28;19961;-89
2022/12/31 03:46:58;;;;;;;;;;;18.60;68.10;;;;;;5007911;28;19925;-92
2022/12/31 03:49:23;;;;;;;;;;;18.70;68.10;;;;;;5008241;28;20369;-91
2022/12/31 03:51:49;;;;;;;;;;;18.80;68.10;;;;;;4993671;28;20201;-90
2022/12/31 03:54:14;;;;;;;;;;;18.90;67.80;;;;;;4993627;28;19917;-90
2022/12/31 03:56:40;;;;;;;;;;;19.00;67.60;;;;;;4994193;28;19987;-91
2022/12/31 03:59:05;;;;;;;;;;;19.00;67.50;;;;;;5009080;28;19909;-91
2022/12/31 04:01:30;;;;;;;;;;;19.10;67.40;;;;;;5008627;28;19918;-92
2022/12/31 04:03:56;;;;;;;;;;;19.20;67.50;;;;;;4992975;28;19917;-90
2022/12/31 04:06:21;;;;;;;;;;;19.10;67.60;;;;;;4992751;28;20324;-92
2022/12/31 04:08:47;;;;;;;;;;;19.20;67.60;;;;;;4992331;28;19910;-92
2022/12/31 04:11:12;;;;;;;;;;;19.10;67.50;;;;;;4993991;28;19917;-90
2022/12/31 04:13:38;;;;;;;;;;;19.20;67.40;;;;;;5007075;28;19910;-93
2022/12/31 04:16:03;;;;;;;;;;;19.10;67.40;;;;;;4992599;28;19934;-93
2022/12/31 04:18:29;;;;;;;;;;;19.00;67.20;;;;;;5007766;28;19968;-93
2022/12/31 04:20:59;;;;;;;;;;;19.00;66.90;;;;;;4992825;28;19914;-92
2022/12/31 04:23:25;;;;;;;;;;;19.00;66.90;;;;;;4993328;28;19918;-93
2022/12/31 04:25:50;;;;;;;;;;;18.90;66.70;;;;;;5007339;28;19944;-92
2022/12/31 04:28:16;;;;;;;;;;;18.90;66.60;;;;;;4991452;28;20261;-92
2022/12/31 04:30:41;;;;;;;;;;;18.90;66.50;;;;;;4992486;28;19948;-90
2022/12/31 04:33:07;;;;;;;;;;;18.80;66.50;;;;;;4993567;28;20404;-89
2022/12/31 04:35:32;;;;;;;;;;;18.80;66.40;;;;;;4991845;28;19968;-92
2022/12/31 04:37:58;;;;;;;;;;;18.80;66.30;;;;;;4992412;28;19918;-92
2022/12/31 04:40:23;;;;;;;;;;;18.80;66.40;;;;;;4992754;28;19910;-89
2022/12/31 04:42:49;;;;;;;;;;;18.70;66.40;;;;;;4991096;28;19980;-88
2022/12/31 04:45:14;;;;;;;;;;;18.70;66.40;;;;;;4993449;28;19920;-88
2022/12/31 04:47:40;;;;;;;;;;;18.70;66.60;;;;;;4992757;28;19920;-92
2022/12/31 04:50:05;;;;;;;;;;;18.70;66.40;;;;;;4993444;28;19914;-91
2022/12/31 04:52:31;;;;;;;;;;;18.70;66.30;;;;;;4992584;28;20035;-89
2022/12/31 04:54:56;;;;;;;;;;;18.70;66.20;;;;;;4996903;28;19914;-92
2022/12/31 04:57:21;;;;;;;;;;;18.70;66.30;;;;;;4991560;28;20343;-89
2022/12/31 04:59:47;;;;;;;;;;;18.60;66.20;;;;;;4992262;28;19921;-92
2022/12/31 05:02:12;;;;;;;;;;;18.50;66.40;;;;;;5008307;28;19949;-92
2022/12/31 05:04:38;;;;;;;;;;;18.50;66.50;;;;;;4991331;28;19914;-93
2022/12/31 05:07:03;;;;;;;;;;;18.50;66.60;;;;;;4990538;28;19914;-90
2022/12/31 05:09:29;;;;;;;;;;;18.50;66.40;;;;;;4991176;28;20289;-88
2022/12/31 05:11:55;;;;;;;;;;;18.50;66.50;;;;;;4991567;28;19981;-89
2022/12/31 05:14:20;;;;;;;;;;;18.50;66.50;;;;;;4991194;28;19999;-92
2022/12/31 05:16:46;;;;;;;;;;;18.50;66.70;;;;;;4991743;28;19926;-89
2022/12/31 05:19:11;;;;;;;;;;;18.50;66.90;;;;;;4998475;28;20246;-92
2022/12/31 05:21:37;;;;;;;;;;;18.40;67.00;;;;;;4992323;28;19924;-91
2022/12/31 05:24:02;;;;;;;;;;;18.50;66.80;;;;;;4990226;28;19967;-92
2022/12/31 05:26:28;;;;;;;;;;;18.40;66.80;;;;;;4994398;28;20280;-90
2022/12/31 05:28:55;;;;;;;;;;;18.50;66.80;;;;;;4993041;28;20286;-92
2022/12/31 05:31:20;;;;;;;;;;;18.40;66.90;;;;;;4990889;28;20512;-93
2022/12/31 05:33:46;;;;;;;;;;;18.40;66.90;;;;;;4991286;28;19917;-88
2022/12/31 05:36:11;;;;;;;;;;;18.40;66.90;;;;;;4991522;28;20392;-89
2022/12/31 05:38:37;;;;;;;;;;;18.40;67.00;;;;;;4992031;28;19985;-89
2022/12/31 05:41:04;;;;;;;;;;;18.40;67.00;;;;;;4989999;28;19922;-90
2022/12/31 05:43:29;;;;;;;;;;;18.40;67.20;;;;;;4991381;28;20313;-89
2022/12/31 05:45:55;;;;;;;;;;;18.50;67.10;;;;;;4992225;28;20389;-91
2022/12/31 05:48:20;;;;;;;;;;;18.40;67.00;;;;;;4993854;28;19910;-92
2022/12/31 05:50:47;;;;;;;;;;;18.40;67.10;;;;;;5010801;28;20040;-93
2022/12/31 05:53:12;;;;;;;;;;;18.50;67.10;;;;;;5010293;28;20260;-92
2022/12/31 05:55:38;;;;;;;;;;;18.50;67.10;;;;;;5006919;28;19918;-89
2022/12/31 05:58:03;;;;;;;;;;;18.50;67.40;;;;;;4991398;28;19910;-88
2022/12/31 06:00:28;;;;;;;;;;;18.50;67.30;;;;;;4993985;28;19914;-90
2022/12/31 06:02:54;;;;;;;;;;;18.50;67.50;;;;;;4993925;28;19918;-91
2022/12/31 06:05:19;;;;;;;;;;;18.60;67.40;;;;;;5006985;28;20297;-89
2022/12/31 06:07:45;;;;;;;;;;;18.60;67.70;;;;;;5006561;28;19918;-88
2022/12/31 06:10:11;;;;;;;;;;;18.50;68.00;;;;;;5006539;28;19910;-88
2022/12/31 06:12:36;;;;;;;;;;;18.70;68.30;;;;;;5007390;28;20003;-92
2022/12/31 06:15:02;;;;;;;;;;;18.70;68.40;;;;;;4996719;28;20426;-89
2022/12/31 06:17:28;;;;;;;;;;;18.70;68.40;;;;;;4992267;28;20539;-93
2022/12/31 06:19:54;;;;;;;;;;;18.80;68.40;;;;;;4998079;28;19953;-92
2022/12/31 06:22:19;;;;;;;;;;;18.80;68.30;;;;;;4989840;28;19953;-88
2022/12/31 06:24:45;;;;;;;;;;;18.80;68.30;;;;;;4992060;28;19910;-89
2022/12/31 06:27:10;;;;;;;;;;;18.90;68.60;;;;;;4991560;28;19918;-91
2022/12/31 06:29:36;;;;;;;;;;;18.90;68.80;;;;;;4989447;28;19914;-91
2022/12/31 06:32:01;;;;;;;;;;;18.90;68.80;;;;;;5006135;28;19918;-91
2022/12/31 06:34:27;;;;;;;;;;;19.00;68.60;;;;;;5006186;28;19910;-91
2022/12/31 06:36:52;;;;;;;;;;;19.20;68.40;;;;;;4989557;28;19934;-91
2022/12/31 06:39:18;;;;;;;;;;;19.20;68.30;;;;;;4990267;28;19961;-89
2022/12/31 06:41:43;;;;;;;;;;;19.30;68.20;;;;;;4992591;28;19918;-89
2022/12/31 06:44:08;;;;;;;;;;;19.40;68.30;;;;;;4991751;28;20522;-91
2022/12/31 06:46:34;;;;;;;;;;;19.30;68.50;;;;;;4992058;28;20012;-90
2022/12/31 06:48:59;;;;;;;;;;;19.50;68.30;;;;;;4990709;28;19933;-91
2022/12/31 06:51:25;;;;;;;;;;;19.60;68.10;;;;;;4991124;28;19925;-88
2022/12/31 06:53:50;;;;;;;;;;;19.70;67.90;;;;;;4989420;28;19910;-90
2022/12/31 06:56:24;;;;;;;;;;;19.80;67.60;;;;;;4991002;28;19926;-91
2022/12/31 06:58:50;;;;;;;;;;;19.80;67.70;;;;;;4992591;28;20007;-91
2022/12/31 07:01:34;;;;;;;;;;;19.90;67.90;;;;;;4992781;28;19918;-91
2022/12/31 07:04:14;;;;;;;;;;;20.00;67.70;;;;;;4994349;28;19917;-89
2022/12/31 07:06:44;;;;;;;;;;;20.00;67.70;;;;;;4993448;28;20016;-92
2022/12/31 07:09:15;;;;;;;;;;;20.10;67.90;;;;;;4994315;28;19910;-90
2022/12/31 07:11:49;;;;;;;;;;;20.20;68.20;;;;;;4992831;28;19925;-90
2022/12/31 07:14:33;;;;;;;;;;;20.30;67.80;;;;;;4993775;28;19910;-90
2022/12/31 07:17:07;;;;;;;;;;;20.40;67.70;;;;;;5014275;28;19936;-89
2022/12/31 07:19:43;;;;;;;;;;;20.40;67.60;;;;;;4994160;28;19937;-90
2022/12/31 07:22:14;;;;;;;;;;;20.50;67.50;;;;;;5009506;28;19948;-90
2022/12/31 07:24:39;;;;;;;;;;;20.50;67.60;;;;;;4996272;28;20490;-92
2022/12/31 07:27:25;;;;;;;;;;;20.50;67.50;;;;;;4994371;28;19917;-91
2022/12/31 07:30:00;;;;;;;;;;;20.50;67.40;;;;;;4992302;28;19909;-92
2022/12/31 07:32:51;;;;;;;;;;;20.70;67.30;;;;;;5009552;28;19918;-90
2022/12/31 07:35:24;;;;;;;;;;;20.70;67.30;;;;;;5012229;28;20008;-91
2022/12/31 07:37:59;;;;;;;;;;;20.70;67.20;;;;;;4993351;28;19929;-89
2022/12/31 07:40:35;;;;;;;;;;;20.70;67.20;;;;;;4994023;28;19937;-90
2022/12/31 07:43:12;;;;;;;;;;;20.80;67.00;;;;;;4989838;28;19918;-92
2022/12/31 07:45:44;;;;;;;;;;;20.80;67.20;;;;;;4974141;28;19910;-91
2022/12/31 07:48:17;;;;;;;;;;;20.80;67.00;;;;;;4972755;28;20578;-92
2022/12/31 07:50:43;;;;;;;;;;;20.90;66.80;;;;;;4973110;28;19985;-91
2022/12/31 07:53:08;;;;;;;;;;;21.00;66.70;;;;;;4973558;28;20017;-90
2022/12/31 07:55:34;;;;;;;;;;;21.00;66.50;;;;;;4976365;28;19918;-91
2022/12/31 07:58:04;;;;;;;;;;;20.90;66.50;;;;;;4978949;28;19956;-89
2022/12/31 08:00:30;;;;;;;;;;;20.90;66.30;;;;;;4993637;28;19914;-92
2022/12/31 08:03:02;;;;;;;;;;;20.80;66.40;;;;;;5008803;28;20092;-91
2022/12/31 08:05:31;;;;;;;;;;;20.80;66.50;;;;;;5009116;28;19909;-90
2022/12/31 08:08:15;;;;;;;;;;;20.70;66.70;;;;;;4993835;28;20303;-91
2022/12/31 08:10:54;;;;;;;;;;;20.70;66.70;;;;;;5010414;28;19913;-91
2022/12/31 08:13:19;;;;;;;;;;;20.50;66.90;;;;;;5010832;28;19910;-89
2022/12/31 08:15:45;;;;;;;;;;;20.50;67.00;;;;;;4993381;28;19925;-91
2022/12/31 08:18:11;;;;;;;;;;;20.40;67.10;;;;;;5007328;28;19928;-91
2022/12/31 08:20:44;;;;;;;;;;;20.40;67.40;;;;;;5008198;28;19918;-91
2022/12/31 08:23:12;;;;;;;;;;;20.40;67.60;;;;;;5008417;28;20023;-92
2022/12/31 08:25:44;;;;;;;;;;;20.40;67.80;;;;;;5008908;28;19939;-91
2022/12/31 08:28:28;;;;;;;;;;;20.50;67.70;;;;;;5012341;28;19909;-92
2022/12/31 08:30:59;;;;;;;;;;;20.60;67.90;;;;;;4996753;28;19918;-92
2022/12/31 08:33:37;;;;;;;;;;;20.60;67.90;;;;;;5007207;28;19917;-90
2022/12/31 08:36:10;;;;;;;;;;;20.80;67.80;;;;;;5006706;28;19933;-92
2022/12/31 08:38:44;;;;;;;;;;;20.90;67.80;;;;;;4984888;28;19913;-92
2022/12/31 08:41:18;;;;;;;;;;;21.00;67.50;;;;;;4983316;28;20373;-92
2022/12/31 08:43:44;;;;;;;;;;;21.00;67.80;;;;;;4998841;28;19921;-93
2022/12/31 08:46:17;;;;;;;;;;;21.10;67.60;;;;;;4980592;28;19918;-92
2022/12/31 08:48:42;;;;;;;;;;;21.30;67.70;;;;;;4999783;28;19914;-91
2022/12/31 08:51:18;;;;;;;;;;;21.30;67.20;;;;;;4997374;28;19918;-91
2022/12/31 08:53:44;;;;;;;;;;;21.50;67.10;;;;;;4996444;28;19921;-91
2022/12/31 08:56:29;;;;;;;;;;;21.50;66.50;;;;;;4985474;28;19926;-94
2022/12/31 08:58:54;;;;;;;;;;;21.60;66.50;;;;;;4997016;28;19910;-92
2022/12/31 09:01:23;;;;;;;;;;;21.70;66.40;;;;;;4980618;28;19929;-92
2022/12/31 09:04:07;;;;;;;;;;;21.80;66.40;;;;;;4971450;28;19910;-93
2022/12/31 09:06:36;;;;;;;;;;;21.70;66.40;;;;;;5000019;28;19968;-91
2022/12/31 09:09:11;;;;;;;;;;;21.80;66.30;;;;;;4990811;28;20421;-92
2022/12/31 09:11:55;;;;;;;;;;;21.80;66.20;;;;;;5020347;28;19917;-91
2022/12/31 09:14:35;;;;;;;;;;;22.00;65.90;;;;;;5010884;28;19909;-92
2022/12/31 09:17:09;;;;;;;;;;;22.00;65.90;;;;;;5010495;28;20510;-93
2022/12/31 09:19:34;;;;;;;;;;;22.00;65.80;;;;;;5002256;28;20004;-94
2022/12/31 09:22:00;;;;;;;;;;;22.10;65.50;;;;;;4989277;28;20012;-93
2022/12/31 09:24:26;;;;;;;;;;;22.20;65.80;;;;;;4991583;28;20349;-92
2022/12/31 09:27:10;;;;;;;;;;;22.20;64.80;;;;;;5007652;28;19925;-93
2022/12/31 09:29:54;;;;;;;;;;;22.20;64.80;;;;;;5003233;28;19925;-94
2022/12/31 09:32:35;;;;;;;;;;;22.20;64.80;;;;;;4972485;28;19958;-94
2022/12/31 09:35:24;;;;;;;;;;;22.30;65.20;;;;;;4977809;28;19917;-91
2022/12/31 09:37:53;;;;;;;;;;;22.30;64.50;;;;;;4982812;28;20311;-93
2022/12/31 09:40:37;;;;;;;;;;;22.30;64.50;;;;;;4999354;28;19910;-90
2022/12/31 09:43:17;;;;;;;;;;;22.40;64.50;;;;;;5010608;28;19925;-90
2022/12/31 09:45:58;;;;;;;;;;;22.40;64.30;;;;;;5009063;28;19925;-93
2022/12/31 09:48:33;;;;;;;;;;;22.40;64.70;;;;;;5009783;28;19910;-94
2022/12/31 09:50:58;;;;;;;;;;;22.50;64.50;;;;;;4998504;28;19929;-92
2022/12/31 09:53:45;;;;;;;;;;;22.60;64.20;;;;;;5010697;28;19909;-94
2022/12/31 09:56:14;;;;;;;;;;;22.60;64.10;;;;;;5008751;28;19933;-92
2022/12/31 09:58:58;;;;;;;;;;;22.50;64.00;;;;;;4991398;28;19913;-92
2022/12/31 10:01:33;;;;;;;;;;;22.60;63.50;;;;;;4985313;28;19922;-93
2022/12/31 10:04:24;;;;;;;;;;;22.60;63.40;;;;;;4991152;28;19913;-92
2022/12/31 10:06:56;;;;;;;;;;;22.60;62.80;;;;;;4986447;28;19922;-93
2022/12/31 10:09:40;;;;;;;;;;;22.60;63.10;;;;;;4987783;28;19960;-92
2022/12/31 10:12:12;;;;;;;;;;;22.70;62.50;;;;;;4990979;28;19921;-91
2022/12/31 10:14:40;;;;;;;;;;;22.70;62.30;;;;;;4990098;28;20008;-90
2022/12/31 10:17:29;;;;;;;;;;;22.70;62.90;;;;;;4969551;28;20368;-92
2022/12/31 10:20:15;;;;;;;;;;;22.80;62.50;;;;;;4977934;28;19972;-92
2022/12/31 10:23:00;;;;;;;;;;;22.80;62.20;;;;;;4988695;28;19928;-91
2022/12/31 10:25:30;;;;;;;;;;;22.80;62.00;;;;;;4988306;28;19932;-91
2022/12/31 10:28:11;;;;;;;;;;;22.90;61.90;;;;;;4988586;28;20021;-94
2022/12/31 10:30:39;;;;;;;;;;;22.90;60.80;;;;;;5003719;28;19918;-90
2022/12/31 10:33:17;;;;;;;;;;;22.90;60.40;;;;;;4989550;28;19918;-91
2022/12/31 10:35:49;;;;;;;;;;;23.00;61.70;;;;;;4991569;28;19921;-94
2022/12/31 10:38:28;;;;;;;;;;;23.00;61.30;;;;;;4992090;28;19917;-92
2022/12/31 10:41:08;;;;;;;;;;;23.10;61.30;;;;;;4993683;28;19968;-91
2022/12/31 10:43:53;;;;;;;;;;;23.10;59.70;;;;;;4991297;28;19968;-93
2022/12/31 10:46:43;;;;;;;;;;;23.10;61.30;;;;;;4991241;28;20345;-92
2022/12/31 10:49:27;;;;;;;;;;;23.00;60.50;;;;;;4992122;28;20430;-93
2022/12/31 10:52:11;;;;;;;;;;;22.80;60.90;;;;;;4993569;28;19931;-91
2022/12/31 10:54:48;;;;;;;;;;;22.50;60.80;;;;;;4994217;28;20004;-92
2022/12/31 10:57:23;;;;;;;;;;;22.30;61.90;;;;;;5006441;28;19977;-93
2022/12/31 10:59:48;;;;;;;;;;;22.30;62.30;;;;;;5002334;28;20596;-93
2022/12/31 11:02:14;;;;;;;;;;;22.30;62.70;;;;;;5009954;28;20019;-91
2022/12/31 11:04:43;;;;;;;;;;;22.30;62.60;;;;;;4990127;28;19917;-94
2022/12/31 11:07:08;;;;;;;;;;;22.30;62.40;;;;;;4996916;28;19976;-92
2022/12/31 11:09:33;;;;;;;;;;;22.40;63.00;;;;;;4986576;28;20003;-93
2022/12/31 11:11:59;;;;;;;;;;;22.40;62.60;;;;;;4991972;28;19922;-93
2022/12/31 11:14:33;;;;;;;;;;;22.50;62.40;;;;;;4991637;28;19922;-90
2022/12/31 11:17:01;;;;;;;;;;;22.60;62.40;;;;;;4997657;28;20016;-91
2022/12/31 11:19:45;;;;;;;;;;;22.70;62.10;;;;;;4987470;28;19964;-90
2022/12/31 11:22:11;;;;;;;;;;;22.80;61.80;;;;;;4989302;28;20012;-93
2022/12/31 11:24:59;;;;;;;;;;;22.80;62.00;;;;;;4990827;28;19977;-93
2022/12/31 11:27:37;;;;;;;;;;;22.70;61.90;;;;;;4989241;28;19963;-94
2022/12/31 11:30:24;;;;;;;;;;;22.50;62.30;;;;;;4991854;28;19960;-92
2022/12/31 11:33:02;;;;;;;;;;;22.40;63.40;;;;;;4989213;28;19948;-93
2022/12/31 11:35:28;;;;;;;;;;;22.30;63.70;;;;;;4989254;28;19921;-94
2022/12/31 11:38:06;;;;;;;;;;;22.30;63.20;;;;;;4990889;28;19980;-92
2022/12/31 11:40:52;;;;;;;;;;;22.30;63.20;;;;;;4992972;28;20357;-91
2022/12/31 11:43:37;;;;;;;;;;;22.30;62.40;;;;;;4991505;28;19968;-93
2022/12/31 11:46:11;;;;;;;;;;;22.30;62.60;;;;;;4991614;28;19921;-92
2022/12/31 11:49:03;;;;;;;;;;;22.40;63.10;;;;;;4993861;28;19913;-92
2022/12/31 11:51:47;;;;;;;;;;;22.50;63.00;;;;;;4993575;28;19926;-90
2022/12/31 11:54:16;;;;;;;;;;;22.60;62.30;;;;;;4994714;28;19914;-91
2022/12/31 11:56:50;;;;;;;;;;;22.70;62.30;;;;;;4993889;28;19957;-90
2022/12/31 11:59:15;;;;;;;;;;;22.90;62.30;;;;;;4990789;28;19920;-91
2022/12/31 12:02:02;;;;;;;;;;;23.00;62.30;;;;;;4991841;28;19922;-92
2022/12/31 12:04:27;;;;;;;;;;;23.20;61.40;;;;;;4980156;28;19910;-92
2022/12/31 12:06:53;;;;;;;;;;;23.20;60.80;;;;;;4992859;28;19955;-92
2022/12/31 12:09:27;;;;;;;;;;;23.30;61.00;;;;;;4990740;28;19914;-91
2022/12/31 12:12:03;;;;;;;;;;;23.40;60.20;;;;;;4989892;28;20507;-93
2022/12/31 12:14:36;;;;;;;;;;;23.40;61.40;;;;;;4990493;28;20041;-93
2022/12/31 12:17:05;;;;;;;;;;;23.40;60.10;;;;;;4990173;28;20442;-92
2022/12/31 12:19:31;;;;;;;;;;;23.50;59.30;;;;;;4989195;28;19960;-91
2022/12/31 12:21:57;;;;;;;;;;;23.50;59.30;;;;;;4989584;28;19922;-93
2022/12/31 12:24:26;;;;;;;;;;;23.50;59.30;;;;;;4989409;28;19933;-91
2022/12/31 12:26:52;;;;;;;;;;;23.70;59.50;;;;;;4988515;28;19929;-92
2022/12/31 12:29:22;;;;;;;;;;;23.60;58.20;;;;;;4990408;28;19914;-92
2022/12/31 12:32:13;;;;;;;;;;;23.70;58.90;;;;;;4991021;28;19949;-92
2022/12/31 12:34:39;;;;;;;;;;;23.70;57.80;;;;;;4988459;28;19913;-92
2022/12/31 12:37:24;;;;;;;;;;;23.80;59.00;;;;;;4990474;28;20033;-92
2022/12/31 12:39:56;;;;;;;;;;;23.80;58.80;;;;;;4983501;28;19961;-89
2022/12/31 12:42:22;;;;;;;;;;;23.80;57.70;;;;;;4989061;28;20288;-92
2022/12/31 12:44:48;;;;;;;;;;;23.70;57.60;;;;;;4991501;28;20009;-94
2022/12/31 12:47:14;;;;;;;;;;;23.70;57.00;;;;;;4988080;28;19925;-92
2022/12/31 12:49:41;;;;;;;;;;;23.70;57.40;;;;;;4985183;28;20349;-92
2022/12/31 12:52:23;;;;;;;;;;;23.70;56.90;;;;;;5002714;28;20866;-92
2022/12/31 12:55:08;;;;;;;;;;;23.70;56.80;;;;;;4989507;28;20660;-92
2022/12/31 12:57:33;;;;;;;;;;;23.70;55.90;;;;;;4988198;28;19988;-90
2022/12/31 13:00:11;;;;;;;;;;;23.70;56.30;;;;;;4987698;28;21608;-93
2022/12/31 13:02:55;;;;;;;;;;;23.80;55.40;;;;;;4985974;28;20479;-93
2022/12/31 13:05:36;;;;;;;;;;;23.80;56.30;;;;;;4991710;28;19906;-92
2022/12/31 13:08:13;;;;;;;;;;;23.80;55.30;;;;;;4987520;28;20304;-90
2022/12/31 13:10:47;;;;;;;;;;;23.80;54.60;;;;;;4982503;28;19921;-92
2022/12/31 13:13:22;;;;;;;;;;;23.70;53.90;;;;;;4995497;28;19988;-94
2022/12/31 13:15:52;;;;;;;;;;;23.80;53.90;;;;;;4990908;28;19975;-93
2022/12/31 13:18:36;;;;;;;;;;;23.80;53.80;;;;;;5007763;28;19932;-91
2022/12/31 13:21:08;;;;;;;;;;;23.80;55.10;;;;;;4987639;28;19918;-90
2022/12/31 13:23:49;;;;;;;;;;;23.80;54.30;;;;;;4989794;28;19938;-92
2022/12/31 13:26:15;;;;;;;;;;;23.90;53.80;;;;;;4987859;28;19914;-93
2022/12/31 13:28:42;;;;;;;;;;;23.80;53.70;;;;;;5004593;28;19928;-91
2022/12/31 13:31:13;;;;;;;;;;;23.80;52.50;;;;;;4983322;28;19914;-92
2022/12/31 13:33:43;;;;;;;;;;;23.90;53.90;;;;;;4989516;28;19928;-91
2022/12/31 13:36:12;;;;;;;;;;;23.90;53.50;;;;;;4971669;28;19932;-93
2022/12/31 13:38:39;;;;;;;;;;;23.90;54.10;;;;;;5009765;28;19918;-92
2022/12/31 13:41:20;;;;;;;;;;;23.80;52.40;;;;;;4983751;28;20399;-93
2022/12/31 13:43:50;;;;;;;;;;;23.80;52.80;;;;;;4983744;28;19921;-91
2022/12/31 13:46:16;;;;;;;;;;;23.80;53.50;;;;;;4988566;28;20265;-92
2022/12/31 13:49:00;;;;;;;;;;;23.80;53.30;;;;;;4996414;28;19926;-92
2022/12/31 13:51:28;;;;;;;;;;;23.70;52.30;;;;;;4992914;28;19917;-94
2022/12/31 13:53:58;;;;;;;;;;;23.60;53.30;;;;;;4991610;28;19972;-92
2022/12/31 13:56:26;;;;;;;;;;;23.50;53.80;;;;;;4995656;28;19948;-91
2022/12/31 13:59:04;;;;;;;;;;;23.20;54.90;;;;;;5009336;28;19917;-93
2022/12/31 14:01:50;;;;;;;;;;;22.80;56.60;;;;;;4986587;28;19925;-93
2022/12/31 14:04:51;;;;;;;;;;;22.50;58.10;;;;;;4987467;28;19973;-92
2022/12/31 14:07:22;;;;;;;;;;;22.30;59.80;;;;;;4973561;28;19924;-92
2022/12/31 14:09:48;;;;;;;;;;;22.00;60.10;;;;;;4986355;28;19930;-89
2022/12/31 14:12:36;;;;;;;;;;;21.80;60.40;;;;;;4998230;28;19985;-92
2022/12/31 14:15:12;;;;;;;;;;;21.60;60.60;;;;;;4992402;28;19922;-95
2022/12/31 14:17:38;;;;;;;;;;;21.60;61.60;;;;;;5005112;28;19926;-93
2022/12/31 14:20:13;;;;;;;;;;;21.60;61.80;;;;;;5000553;28;19933;-91
2022/12/31 14:22:46;;;;;;;;;;;21.60;62.10;;;;;;4991901;28;19918;-93
2022/12/31 14:25:17;;;;;;;;;;;21.40;61.80;;;;;;4991150;28;19926;-93
2022/12/31 14:27:45;;;;;;;;;;;21.40;62.20;;;;;;4989531;28;20008;-91
2022/12/31 14:30:13;;;;;;;;;;;21.30;62.60;;;;;;4991850;28;19944;-91
2022/12/31 14:32:39;;;;;;;;;;;21.30;62.70;;;;;;5000517;28;19925;-91
2022/12/31 14:35:04;;;;;;;;;;;21.20;62.20;;;;;;4994543;28;19922;-92
2022/12/31 14:37:36;;;;;;;;;;;21.30;62.70;;;;;;4995001;28;20002;-92
2022/12/31 14:40:13;;;;;;;;;;;21.30;62.40;;;;;;4986513;28;20427;-91
2022/12/31 14:42:51;;;;;;;;;;;21.30;62.50;;;;;;4993200;28;19914;-93
2022/12/31 14:45:35;;;;;;;;;;;21.30;62.70;;;;;;4994863;28;20011;-92
2022/12/31 14:48:12;;;;;;;;;;;21.40;62.70;;;;;;4995867;28;20008;-90
2022/12/31 14:50:37;;;;;;;;;;;21.30;62.50;;;;;;4991159;28;19914;-92
2022/12/31 14:53:05;;;;;;;;;;;21.30;62.40;;;;;;5000143;28;20316;-91
2022/12/31 14:55:30;;;;;;;;;;;21.30;62.40;;;;;;4991911;28;19922;-93